Time;durP1;ratioP1;P1;durP2;ratioP2;P2;SDS_P1;SDS_P2;PMS_P1;PMS_P2;Temp;Humidity;BMP_temperature;BMP_pressure;BME280_temperature;BME280_humidity;BME280_pressure;Samples;Min_cycle;Max_cycle;Signal;HPM_P1;HPM_P2
2022/06/25 00:00:01;;;;;;;4.00;1.10;;;;;;;-146.19;100.00;58918.88;5037883;28;20088;-52
2022/06/25 00:02:29;;;;;;;1.60;1.02;;;;;;;-146.19;100.00;58918.88;5058316;28;20080;-48
2022/06/25 00:07:43;;;;;;;1.73;1.17;;;;;;;-146.19;100.00;58918.88;5036314;28;20068;-48
2022/06/25 00:10:13;;;;;;;1.98;1.23;;;;;;;-146.19;100.00;58918.88;5037290;28;20061;-49
2022/06/25 00:12:41;;;;;;;3.37;1.10;;;;;;;-146.19;100.00;58918.88;5044837;28;20065;-52
2022/06/25 00:15:10;;;;;;;1.52;1.13;;;;;;;-146.19;100.00;58918.88;5038283;28;20506;-50
2022/06/25 00:17:39;;;;;;;1.40;1.10;;;;;;;-146.19;100.00;58918.88;5032594;28;20084;-46
2022/06/25 00:20:08;;;;;;;1.52;1.20;;;;;;;-146.19;100.00;58918.88;5032548;28;20064;-46
2022/06/25 00:22:37;;;;;;;1.83;0.97;;;;;;;-146.19;100.00;58918.88;5050324;28;20064;-45
2022/06/25 00:25:06;;;;;;;3.03;1.30;;;;;;;-146.19;100.00;58918.88;5044294;28;20483;-50
2022/06/25 00:27:35;;;;;;;1.42;1.20;;;;;;;-146.19;100.00;58918.88;5037803;28;20065;-47
2022/06/25 00:30:06;;;;;;;2.03;1.02;;;;;;;-146.19;100.00;58918.88;5033626;28;20084;-47
2022/06/25 00:32:34;;;;;;;2.78;1.20;;;;;;;-146.19;100.00;58918.88;5050480;28;20103;-45
2022/06/25 00:35:03;;;;;;;1.48;1.10;;;;;;;-146.19;100.00;58918.88;5029028;28;20061;-51
2022/06/25 00:37:32;;;;;;;0.98;0.95;;;;;;;-146.19;100.00;58918.88;5042945;28;20068;-46
2022/06/25 00:40:01;;;;;;;3.35;1.13;;;;;;;-146.19;100.00;58918.88;5032103;28;20095;-51
2022/06/25 00:42:30;;;;;;;1.48;1.10;;;;;;;-146.19;100.00;58918.88;5041819;28;20061;-49
2022/06/25 00:45:00;;;;;;;1.50;1.05;;;;;;;-146.19;100.00;58918.88;5044092;28;20147;-45
2022/06/25 00:47:28;;;;;;;1.67;1.25;;;;;;;-146.19;100.00;58918.88;5044648;28;20080;-46
2022/06/25 00:49:57;;;;;;;1.25;1.00;;;;;;;-146.19;100.00;58918.88;5043307;28;20065;-48
2022/06/25 00:52:26;;;;;;;2.03;1.10;;;;;;;-146.19;100.00;58918.88;5043724;28;20091;-48
2022/06/25 00:54:57;;;;;;;1.83;1.00;;;;;;;-146.19;100.00;58918.88;5026097;28;20061;-52
2022/06/25 00:57:27;;;;;;;3.65;1.20;;;;;;;-146.19;100.00;58918.88;5035895;28;20064;-52
2022/06/25 01:00:06;;;;;;;2.13;1.10;;;;;;;-146.19;100.00;58918.88;5028653;28;20766;-49
2022/06/25 01:02:35;;;;;;;2.08;1.02;;;;;;;-146.19;100.00;58918.88;5046219;28;20088;-50
2022/06/25 01:05:06;;;;;;;2.42;0.90;;;;;;;-146.19;100.00;58918.88;5031055;28;20076;-46
2022/06/25 01:07:35;;;;;;;3.63;1.00;;;;;;;-146.19;100.00;58918.88;5037028;28;20065;-50
2022/06/25 01:10:06;;;;;;;1.50;1.00;;;;;;;-146.19;100.00;58918.88;5029750;28;20563;-48
2022/06/25 01:12:34;;;;;;;1.75;1.17;;;;;;;-146.19;100.00;58918.88;5044544;28;20071;-47
2022/06/25 01:15:07;;;;;;;1.67;1.10;;;;;;;-146.19;100.00;58918.88;5040423;28;20555;-53
2022/06/25 01:17:36;;;;;;;2.72;1.20;;;;;;;-146.19;100.00;58918.88;5043901;28;20081;-48
2022/06/25 01:20:05;;;;;;;1.20;1.10;;;;;;;-146.19;100.00;58918.88;5030431;28;20080;-46
2022/06/25 01:22:35;;;;;;;2.40;1.15;;;;;;;-146.19;100.00;58918.88;5041300;28;20067;-48
2022/06/25 01:25:04;;;;;;;2.67;1.27;;;;;;;-146.19;100.00;58918.88;5045953;28;20072;-49
2022/06/25 01:27:33;;;;;;;2.60;1.00;;;;;;;-146.19;100.00;58918.88;5039396;28;20057;-46
2022/06/25 01:30:02;;;;;;;1.30;1.20;;;;;;;-146.19;100.00;58918.88;5036509;28;20107;-47
2022/06/25 01:32:31;;;;;;;2.80;1.10;;;;;;;-146.19;100.00;58918.88;5042344;28;20088;-48
2022/06/25 01:34:59;;;;;;;2.53;1.20;;;;;;;-146.19;100.00;58918.88;5029463;28;20542;-47
2022/06/25 01:37:27;;;;;;;3.22;1.15;;;;;;;-146.19;100.00;58918.88;5030515;28;20077;-49
2022/06/25 01:39:58;;;;;;;1.90;1.27;;;;;;;-146.19;100.00;58918.88;5034129;28;20061;-49
2022/06/25 01:45:13;;;;;;;2.30;1.10;;;;;;;-146.19;100.00;58918.88;5028913;28;20064;-52
2022/06/25 01:47:42;;;;;;;1.20;1.08;;;;;;;-146.19;100.00;58918.88;5029491;28;20086;-48
2022/06/25 01:50:11;;;;;;;2.08;1.00;;;;;;;-146.19;100.00;58918.88;5032352;28;20072;-48
2022/06/25 01:52:42;;;;;;;3.08;1.20;;;;;;;-146.19;100.00;58918.88;5042601;28;20072;-49
2022/06/25 01:55:12;;;;;;;3.63;1.17;;;;;;;-146.19;100.00;58918.88;5038397;28;20060;-52
2022/06/25 01:57:41;;;;;;;6.03;1.10;;;;;;;-146.19;100.00;58918.88;5044500;28;20069;-47
2022/06/25 02:00:12;;;;;;;3.00;1.10;;;;;;;-146.19;100.00;58918.88;5032864;28;20080;-47
2022/06/25 02:02:41;;;;;;;1.60;1.20;;;;;;;-146.19;100.00;58918.88;5042822;28;20638;-47
2022/06/25 02:05:11;;;;;;;1.57;1.10;;;;;;;-146.19;100.00;58918.88;5035276;28;20080;-55
2022/06/25 02:07:39;;;;;;;3.90;1.02;;;;;;;-146.19;100.00;58918.88;5033583;28;20072;-51
2022/06/25 02:10:10;;;;;;;1.73;1.30;;;;;;;-146.19;100.00;58918.88;5039965;28;20076;-51
2022/06/25 02:12:39;;;;;;;2.45;1.38;;;;;;;-146.19;100.00;58918.88;5048942;28;20087;-52
2022/06/25 02:15:12;;;;;;;2.75;1.13;;;;;;;-146.19;100.00;58918.88;5031391;28;20520;-53
2022/06/25 02:17:40;;;;;;;1.52;1.17;;;;;;;-146.19;100.00;58918.88;5041677;28;20049;-51
2022/06/25 02:20:10;;;;;;;1.42;1.10;;;;;;;-146.19;100.00;58918.88;5043814;28;20061;-49
2022/06/25 02:22:38;;;;;;;2.35;1.00;;;;;;;-146.19;100.00;58918.88;5041971;28;20073;-49
2022/06/25 02:25:07;;;;;;;5.25;1.40;;;;;;;-146.19;100.00;58918.88;5037159;28;20072;-55
2022/06/25 02:27:36;;;;;;;3.00;1.38;;;;;;;-146.19;100.00;58918.88;5043632;28;20060;-50
2022/06/25 02:30:07;;;;;;;2.45;1.33;;;;;;;-146.19;100.00;58918.88;5039317;28;20100;-50
2022/06/25 02:32:36;;;;;;;1.15;1.00;;;;;;;-146.19;100.00;58918.88;5035100;28;20072;-52
2022/06/25 02:35:05;;;;;;;2.03;1.30;;;;;;;-146.19;100.00;58918.88;5028759;28;20080;-51
2022/06/25 02:37:33;;;;;;;1.90;1.30;;;;;;;-146.19;100.00;58918.88;5023249;28;20060;-52
2022/06/25 02:40:03;;;;;;;3.50;1.20;;;;;;;-146.19;100.00;58918.88;5040652;28;20068;-49
2022/06/25 02:42:34;;;;;;;3.90;1.23;;;;;;;-146.19;100.00;58918.88;5042525;28;20064;-46
2022/06/25 02:45:03;;;;;;;3.50;1.55;;;;;;;-146.19;100.00;58918.88;5042206;28;20107;-47
2022/06/25 02:47:33;;;;;;;3.83;1.20;;;;;;;-146.19;100.00;58918.88;5034245;28;20077;-47
2022/06/25 02:50:01;;;;;;;;;;;;;;;-146.19;100.00;58918.88;5047371;28;20076;-47
2022/06/25 02:52:30;;;;;;;2.17;1.30;;;;;;;-146.19;100.00;58918.88;5035537;28;19957;-49
2022/06/25 02:54:59;;;;;;;3.13;1.33;;;;;;;-146.19;100.00;58918.88;5028397;28;20523;-50
2022/06/25 03:00:14;;;;;;;1.42;1.17;;;;;;;-146.19;100.00;58918.88;5031442;28;20053;-47
2022/06/25 03:02:44;;;;;;;2.63;1.17;;;;;;;-146.19;100.00;58918.88;5035032;28;20088;-52
2022/06/25 03:05:13;;;;;;;1.50;1.27;;;;;;;-146.19;100.00;58918.88;5038495;28;20411;-53
2022/06/25 03:07:41;;;;;;;2.10;1.70;;;;;;;-146.19;100.00;58918.88;5038827;28;20072;-49
2022/06/25 03:10:10;;;;;;;1.75;1.20;;;;;;;-146.19;100.00;58918.88;5026116;28;20539;-53
2022/06/25 03:12:38;;;;;;;2.28;1.20;;;;;;;-146.19;100.00;58918.88;5035600;28;20176;-51
2022/06/25 03:15:07;;;;;;;2.72;1.27;;;;;;;-146.19;100.00;58918.88;5045539;28;20076;-47
2022/06/25 03:17:36;;;;;;;1.30;1.20;;;;;;;-146.19;100.00;58918.88;5043050;28;20044;-48
2022/06/25 03:20:07;;;;;;;4.80;1.30;;;;;;;-146.19;100.00;58918.88;5041709;28;20433;-50
2022/06/25 03:22:35;;;;;;;1.92;1.20;;;;;;;-146.19;100.00;58918.88;5048159;28;20072;-50
2022/06/25 03:25:04;;;;;;;2.13;1.38;;;;;;;-146.19;100.00;58918.88;5033512;28;20072;-48
2022/06/25 03:27:33;;;;;;;4.25;1.40;;;;;;;-146.19;100.00;58918.88;5043603;28;20069;-47
2022/06/25 03:30:02;;;;;;;1.33;1.15;;;;;;;-146.19;100.00;58918.88;5028743;28;20111;-47
2022/06/25 03:32:30;;;;;;;3.38;1.20;;;;;;;-146.19;100.00;58918.88;5029847;28;20080;-54
2022/06/25 03:34:59;;;;;;;1.48;1.10;;;;;;;-146.19;100.00;58918.88;5024159;28;20070;-49
2022/06/25 03:37:28;;;;;;;2.30;1.20;;;;;;;-146.19;100.00;58918.88;5035353;28;20068;-48
2022/06/25 03:39:58;;;;;;;4.88;1.42;;;;;;;-146.19;100.00;58918.88;5032897;28;20065;-51
2022/06/25 03:42:27;;;;;;;1.37;1.13;;;;;;;-146.19;100.00;58918.88;5034919;28;20069;-52
2022/06/25 03:44:55;;;;;;;2.15;1.13;;;;;;;-146.19;100.00;58918.88;5034402;28;20500;-51
2022/06/25 03:47:24;;;;;;;5.00;1.45;;;;;;;-146.19;100.00;58918.88;5042793;28;20549;-49
2022/06/25 03:49:53;;;;;;;1.30;1.20;;;;;;;-146.19;100.00;58918.88;5024401;28;20064;-47
2022/06/25 03:52:22;;;;;;;7.10;1.33;;;;;;;-146.19;100.00;58918.88;5027944;28;20077;-47
2022/06/25 03:54:51;;;;;;;2.58;1.23;;;;;;;-146.19;100.00;58918.88;5033405;28;20080;-50
2022/06/25 03:57:20;;;;;;;2.20;1.10;;;;;;;-146.19;100.00;58918.88;5042292;28;20838;-50
2022/06/25 03:59:48;;;;;;;2.05;1.42;;;;;;;-146.19;100.00;58918.88;5051110;28;20088;-48
2022/06/25 04:02:17;;;;;;;2.50;1.17;;;;;;;-146.19;100.00;58918.88;5040244;28;20222;-48
2022/06/25 04:04:45;;;;;;;1.77;1.20;;;;;;;-146.19;100.00;58918.88;5047513;28;20822;-49
2022/06/25 04:07:13;;;;;;;2.17;1.25;;;;;;;-146.19;100.00;58918.88;5040339;28;20447;-48
2022/06/25 04:09:42;;;;;;;4.80;1.20;;;;;;;-146.19;100.00;58918.88;5039377;28;20065;-49
2022/06/25 04:12:12;;;;;;;4.47;1.20;;;;;;;-146.19;100.00;58918.88;5033437;28;20092;-53
2022/06/25 04:14:41;;;;;;;1.92;1.13;;;;;;;-146.19;100.00;58918.88;5042082;28;20065;-52
2022/06/25 04:17:10;;;;;;;1.92;1.02;;;;;;;-146.19;100.00;58918.88;5034674;28;20087;-49
2022/06/25 04:19:40;;;;;;;2.25;1.20;;;;;;;-146.19;100.00;58918.88;5038210;28;20064;-50
2022/06/25 04:22:11;;;;;;;2.70;1.10;;;;;;;-146.19;100.00;58918.88;5035072;28;20274;-50
2022/06/25 04:24:42;;;;;;;5.25;1.23;;;;;;;-146.19;100.00;58918.88;5033723;28;20539;-50
2022/06/25 04:29:03;;;;;;;1.85;1.15;;;;;;;-146.19;100.00;58918.88;5039817;28;20088;-50
2022/06/25 04:29:59;;;;;;;;;;;;;;;-146.19;100.00;58918.88;5027032;28;20104;-48
2022/06/25 04:32:29;;;;;;;4.30;1.30;;;;;;;-146.19;100.00;58918.88;5039254;28;19964;-48
2022/06/25 04:34:57;;;;;;;4.40;1.25;;;;;;;-146.19;100.00;58918.88;5050098;28;20045;-47
2022/06/25 04:37:26;;;;;;;2.45;1.25;;;;;;;-146.19;100.00;58918.88;5044274;28;20080;-47
2022/06/25 04:39:54;;;;;;;3.80;1.20;;;;;;;-146.19;100.00;58918.88;5048258;28;20440;-45
2022/06/25 04:42:24;;;;;;;2.22;1.20;;;;;;;-146.19;100.00;58918.88;5040992;28;20432;-45
2022/06/25 04:44:52;;;;;;;4.95;1.20;;;;;;;-146.19;100.00;58918.88;5026365;28;20065;-48
2022/06/25 04:47:21;;;;;;;2.42;1.20;;;;;;;-146.19;100.00;58918.88;5065118;28;20124;-48
2022/06/25 04:49:49;;;;;;;2.70;1.27;;;;;;;-146.19;100.00;58918.88;5038749;28;20507;-49
2022/06/25 04:52:18;;;;;;;2.60;1.30;;;;;;;-146.19;100.00;58918.88;5038395;28;20061;-50
2022/06/25 04:54:46;;;;;;;3.03;1.10;;;;;;;-146.19;100.00;58918.88;5037456;28;20068;-50
2022/06/25 04:57:15;;;;;;;2.33;1.02;;;;;;;-146.19;100.00;58918.88;5033103;28;20065;-53
2022/06/25 04:59:45;;;;;;;3.63;1.27;;;;;;;-146.19;100.00;58918.88;5032243;28;20069;-50
2022/06/25 05:02:14;;;;;;;0.80;0.80;;;;;;;-146.19;100.00;58918.88;5027767;28;20064;-47
2022/06/25 05:04:42;;;;;;;2.85;0.90;;;;;;;-146.19;100.00;58918.88;5037772;28;20072;-49
2022/06/25 05:07:11;;;;;;;1.73;1.00;;;;;;;-146.19;100.00;58918.88;5041222;28;20060;-47
2022/06/25 05:09:39;;;;;;;4.60;1.00;;;;;;;-146.19;100.00;58918.88;5046142;28;20065;-48
2022/06/25 05:12:08;;;;;;;2.58;1.00;;;;;;;-146.19;100.00;58918.88;5029266;28;20069;-51
2022/06/25 05:14:36;;;;;;;4.20;0.90;;;;;;;-146.19;100.00;58918.88;5039107;28;20088;-50
2022/06/25 05:17:06;;;;;;;2.88;1.02;;;;;;;-146.19;100.00;58918.88;5039446;28;20069;-47
2022/06/25 05:19:35;;;;;;;5.32;1.42;;;;;;;-146.19;100.00;58918.88;5046363;28;20076;-47
2022/06/25 05:22:03;;;;;;;6.45;1.10;;;;;;;-146.19;100.00;58918.88;5037953;28;20060;-54
2022/06/25 05:24:32;;;;;;;3.38;1.00;;;;;;;-146.19;100.00;58918.88;5040464;28;20349;-49
2022/06/25 05:27:00;;;;;;;2.28;0.90;;;;;;;-146.19;100.00;58918.88;5041023;28;20089;-49
2022/06/25 05:29:28;;;;;;;2.40;1.00;;;;;;;-146.19;100.00;58918.88;5036945;28;20056;-53
2022/06/25 05:32:00;;;;;;;1.20;0.90;;;;;;;-146.19;100.00;58918.88;5041714;28;20069;-49
2022/06/25 05:34:29;;;;;;;3.42;1.00;;;;;;;-146.19;100.00;58918.88;5035113;28;20065;-48
2022/06/25 05:36:58;;;;;;;2.88;0.98;;;;;;;-146.19;100.00;58918.88;5034439;28;20067;-47
2022/06/25 05:39:26;;;;;;;3.97;1.13;;;;;;;-146.19;100.00;58918.88;5033918;28;20068;-53
2022/06/25 05:41:55;;;;;;;5.80;1.02;;;;;;;-146.19;100.00;58918.88;5027510;28;20084;-47
2022/06/25 05:44:23;;;;;;;2.33;1.10;;;;;;;-146.19;100.00;58918.88;5034627;28;20064;-47
2022/06/25 05:46:51;;;;;;;2.22;1.02;;;;;;;-146.19;100.00;58918.88;5028491;28;20071;-51
2022/06/25 05:49:20;;;;;;;2.30;0.90;;;;;;;-146.19;100.00;58918.88;5029831;28;20068;-48
2022/06/25 05:51:50;;;;;;;3.63;0.95;;;;;;;-146.19;100.00;58918.88;5039745;28;20076;-46
2022/06/25 05:54:18;;;;;;;1.10;0.93;;;;;;;-146.19;100.00;58918.88;5044114;28;20063;-49
2022/06/25 05:56:47;;;;;;;1.90;1.00;;;;;;;-146.19;100.00;58918.88;5042063;28;20064;-52
2022/06/25 05:59:16;;;;;;;1.63;1.00;;;;;;;-146.19;100.00;58918.88;5044529;28;20072;-49
2022/06/25 06:01:44;;;;;;;1.77;0.90;;;;;;;-146.19;100.00;58918.88;5023493;28;20072;-49
2022/06/25 06:04:13;;;;;;;2.22;1.00;;;;;;;-146.19;100.00;58918.88;5036727;28;20068;-48
2022/06/25 06:06:41;;;;;;;2.72;0.90;;;;;;;-146.19;100.00;58918.88;5037627;28;20064;-46
2022/06/25 06:09:13;;;;;;;2.05;0.90;;;;;;;-146.19;100.00;58918.88;5042601;28;20126;-49
2022/06/25 06:11:41;;;;;;;1.90;1.25;;;;;;;-146.19;100.00;58918.88;5032285;28;20089;-48
2022/06/25 06:14:09;;;;;;;3.05;1.02;;;;;;;-146.19;100.00;58918.88;5029549;28;20095;-51
2022/06/25 06:16:38;;;;;;;1.33;0.90;;;;;;;-146.19;100.00;58918.88;5035495;28;20075;-47
2022/06/25 06:19:06;;;;;;;1.73;0.80;;;;;;;-146.19;100.00;58918.88;5035722;28;20508;-51
2022/06/25 06:21:35;;;;;;;3.10;1.00;;;;;;;-146.19;100.00;58918.88;5034001;28;20302;-46
2022/06/25 06:24:03;;;;;;;1.88;0.80;;;;;;;-146.19;100.00;58918.88;5023043;28;20069;-54
2022/06/25 06:26:33;;;;;;;1.27;0.73;;;;;;;-146.19;100.00;58918.88;5036382;28;20519;-48
2022/06/25 06:29:01;;;;;;;1.40;0.70;;;;;;;-146.19;100.00;58918.88;5036349;28;20202;-52
2022/06/25 06:31:30;;;;;;;1.50;0.90;;;;;;;-146.19;100.00;58918.88;5040786;28;20075;-51
2022/06/25 06:33:59;;;;;;;3.28;0.80;;;;;;;-146.19;100.00;58918.88;5024822;28;20072;-46
2022/06/25 06:36:27;;;;;;;2.60;1.00;;;;;;;-146.19;100.00;58918.88;5036609;28;20063;-46
2022/06/25 06:38:56;;;;;;;1.17;0.75;;;;;;;-146.19;100.00;58918.88;5061179;28;20080;-46
2022/06/25 06:41:24;;;;;;;2.97;0.90;;;;;;;-146.19;100.00;58918.88;5036770;28;20065;-45
2022/06/25 06:43:54;;;;;;;1.25;0.75;;;;;;;-146.19;100.00;58918.88;5028964;28;20064;-51
2022/06/25 06:46:23;;;;;;;2.70;0.90;;;;;;;-146.19;100.00;58918.88;5036175;28;20069;-46
2022/06/25 06:48:51;;;;;;;3.60;0.90;;;;;;;-146.19;100.00;58918.88;5029929;28;20069;-52
2022/06/25 06:51:19;;;;;;;1.65;0.90;;;;;;;-146.19;100.00;58918.88;5039506;28;20064;-46
2022/06/25 06:53:48;;;;;;;2.35;0.70;;;;;;;-146.19;100.00;58918.88;5035226;28;20077;-47
2022/06/25 06:56:16;;;;;;;1.63;0.80;;;;;;;-146.19;100.00;58918.88;5034199;28;20060;-46
2022/06/25 06:58:44;;;;;;;2.53;0.73;;;;;;;-146.19;100.00;58918.88;5035564;28;20065;-49
2022/06/25 07:01:14;;;;;;;3.40;0.70;;;;;;;-146.19;100.00;58918.88;5026618;28;20061;-47
2022/06/25 07:03:42;;;;;;;1.00;0.75;;;;;;;-146.19;100.00;58918.88;5028157;28;20069;-48
2022/06/25 07:06:11;;;;;;;1.23;0.70;;;;;;;-146.19;100.00;58918.88;5027967;28;20088;-50
2022/06/25 07:08:39;;;;;;;3.03;0.70;;;;;;;-146.19;100.00;58918.88;5042053;28;20111;-48
2022/06/25 07:11:28;;;;;;;1.05;0.70;;;;;;;-146.19;100.00;58918.88;5041118;28;20065;-46
2022/06/25 07:13:57;;;;;;;2.60;0.70;;;;;;;-146.19;100.00;58918.88;5026821;28;20512;-50
2022/06/25 07:16:28;;;;;;;0.80;0.80;;;;;;;-146.19;100.00;58918.88;5024310;28;20069;-48
2022/06/25 07:18:58;;;;;;;5.32;0.82;;;;;;;-146.19;100.00;58918.88;5062073;28;20076;-53
2022/06/25 07:21:27;;;;;;;1.15;0.70;;;;;;;-146.19;100.00;58918.88;5033582;28;20072;-46
2022/06/25 07:23:55;;;;;;;1.67;0.77;;;;;;;-146.19;100.00;58918.88;5041561;28;20104;-51
2022/06/25 07:26:24;;;;;;;2.75;0.80;;;;;;;-146.19;100.00;58918.88;5035395;28;20077;-45
2022/06/25 07:28:53;;;;;;;1.90;0.90;;;;;;;-146.19;100.00;58918.88;5041388;28;20088;-51
2022/06/25 07:31:22;;;;;;;3.92;0.80;;;;;;;-146.19;100.00;58918.88;5029036;28;20191;-46
2022/06/25 07:33:52;;;;;;;2.60;1.10;;;;;;;-146.19;100.00;58918.88;5033127;28;20467;-55
2022/06/25 07:36:21;;;;;;;1.92;0.90;;;;;;;-146.19;100.00;58918.88;5037510;28;20136;-46
2022/06/25 07:38:49;;;;;;;3.78;1.05;;;;;;;-146.19;100.00;58918.88;5032617;28;20088;-46
2022/06/25 07:41:17;;;;;;;2.40;0.93;;;;;;;-146.19;100.00;58918.88;5042785;28;20500;-52
2022/06/25 07:43:46;;;;;;;4.50;1.00;;;;;;;-146.19;100.00;58918.88;5038165;28;20065;-48
2022/06/25 07:46:14;;;;;;;1.30;0.73;;;;;;;-146.19;100.00;58918.88;5043126;28;20071;-49
2022/06/25 07:48:43;;;;;;;1.95;0.90;;;;;;;-146.19;100.00;58918.88;5050853;28;20069;-48
2022/06/25 07:53:59;;;;;;;4.22;0.98;;;;;;;-146.19;100.00;58918.88;5038667;28;20076;-47
2022/06/25 07:56:27;;;;;;;2.30;0.88;;;;;;;-146.19;100.00;58918.88;5030187;28;20083;-46
2022/06/25 07:58:55;;;;;;;1.58;0.93;;;;;;;-146.19;100.00;58918.88;5029683;28;20110;-47
2022/06/25 08:01:24;;;;;;;1.10;0.90;;;;;;;-146.19;100.00;58918.88;5031963;28;20061;-49
2022/06/25 08:03:52;;;;;;;1.88;1.08;;;;;;;-146.19;100.00;58918.88;5045445;28;20075;-51
2022/06/25 08:06:22;;;;;;;1.48;0.90;;;;;;;-146.19;100.00;58918.88;5032502;28;20072;-52
2022/06/25 08:08:51;;;;;;;2.28;1.00;;;;;;;-146.19;100.00;58918.88;5041463;28;20097;-47
2022/06/25 08:11:19;;;;;;;4.47;0.90;;;;;;;-146.19;100.00;58918.88;5038717;28;20308;-49
2022/06/25 08:13:47;;;;;;;1.90;1.00;;;;;;;-146.19;100.00;58918.88;5038406;28;20068;-51
2022/06/25 08:16:16;;;;;;;1.15;0.88;;;;;;;-146.19;100.00;58918.88;5036125;28;20076;-51
2022/06/25 08:18:44;;;;;;;4.68;1.05;;;;;;;-146.19;100.00;58918.88;5036742;28;20069;-47
2022/06/25 08:21:13;;;;;;;1.35;0.70;;;;;;;-146.19;100.00;58918.88;5042937;28;20114;-47
2022/06/25 08:23:43;;;;;;;1.83;0.80;;;;;;;-146.19;100.00;58918.88;5031895;28;20244;-46
2022/06/25 08:26:11;;;;;;;2.55;1.00;;;;;;;-146.19;100.00;58918.88;5038738;28;20383;-46
2022/06/25 08:28:40;;;;;;;4.10;1.00;;;;;;;-146.19;100.00;58918.88;5048613;28;20069;-53
2022/06/25 08:31:08;;;;;;;0.93;0.73;;;;;;;-146.19;100.00;58918.88;5047405;28;20515;-49
2022/06/25 08:33:37;;;;;;;0.98;0.73;;;;;;;-146.19;100.00;58918.88;5027602;28;20078;-46
2022/06/25 08:36:05;;;;;;;1.10;0.80;;;;;;;-146.19;100.00;58918.88;5040132;28;20455;-47
2022/06/25 08:38:34;;;;;;;2.45;0.90;;;;;;;-146.19;100.00;58918.88;5033046;28;20068;-46
2022/06/25 08:41:04;;;;;;;1.10;0.70;;;;;;;-146.19;100.00;58918.88;5050973;28;20538;-46
2022/06/25 08:43:32;;;;;;;1.42;0.75;;;;;;;-146.19;100.00;58918.88;5031818;28;20485;-46
2022/06/25 08:46:01;;;;;;;2.55;1.17;;;;;;;-146.19;100.00;58918.88;5044220;28;20073;-52
2022/06/25 08:48:32;;;;;;;2.25;1.00;;;;;;;-146.19;100.00;58918.88;5033546;28;20729;-47
2022/06/25 08:51:01;;;;;;;2.47;0.90;;;;;;;-146.19;100.00;58918.88;5031459;28;20091;-56
2022/06/25 08:53:32;;;;;;;1.05;0.88;;;;;;;-146.19;100.00;58918.88;5033814;28;20077;-48
2022/06/25 08:56:02;;;;;;;2.05;0.82;;;;;;;-146.19;100.00;58918.88;5037683;28;20065;-50
2022/06/25 08:58:32;;;;;;;2.05;0.95;;;;;;;-146.19;100.00;58918.88;5048370;28;20075;-51
2022/06/25 09:01:00;;;;;;;;;;;;;;;-146.19;100.00;58918.88;5043332;28;20065;-52
2022/06/25 09:03:29;;;;;;;2.88;0.90;;;;;;;-146.19;100.00;58918.88;5033848;28;19944;-49
2022/06/25 09:06:12;;;;;;;1.70;0.90;;;;;;;-146.19;100.00;58918.88;5035253;28;20112;-47
2022/06/25 09:08:41;;;;;;;2.55;0.93;;;;;;;-146.19;100.00;58918.88;5032061;28;20080;-50
2022/06/25 09:11:11;;;;;;;1.38;0.68;;;;;;;-146.19;100.00;58918.88;5042084;28;20548;-49
2022/06/25 09:13:40;;;;;;;1.95;0.80;;;;;;;-146.19;100.00;58918.88;5025229;28;20065;-47
2022/06/25 09:16:23;;;;;;;2.53;1.25;;;;;;;-146.19;100.00;58918.88;5037797;28;20069;-52
2022/06/25 09:19:28;;;;;;;12.38;1.95;;;;;;;-146.19;100.00;58918.88;5033788;28;20069;-56
2022/06/25 09:22:22;;;;;;;2.58;0.90;;;;;;;-146.19;100.00;58918.88;5022454;28;20066;-49
2022/06/25 09:25:24;;;;;;;1.48;0.98;;;;;;;-146.19;100.00;58918.88;5033410;28;20033;-50
2022/06/25 09:28:30;;;;;;;2.78;1.00;;;;;;;-146.19;100.00;58918.88;5026532;28;20076;-48
2022/06/25 09:31:35;;;;;;;2.15;0.80;;;;;;;-146.19;100.00;58918.88;5035085;28;20069;-50
2022/06/25 09:34:34;;;;;;;2.42;0.90;;;;;;;-146.19;100.00;58918.88;5030323;28;20436;-52
2022/06/25 09:37:27;;;;;;;1.25;0.80;;;;;;;-146.19;100.00;58918.88;5039342;28;20080;-51
2022/06/25 09:40:20;;;;;;;0.93;0.80;;;;;;;-146.19;100.00;58918.88;5043656;28;20060;-53
2022/06/25 09:43:14;;;;;;;2.38;0.90;;;;;;;-146.19;100.00;58918.88;5039755;28;20060;-49
2022/06/25 09:46:08;;;;;;;1.85;0.93;;;;;;;-146.19;100.00;58918.88;5031393;28;20061;-46
2022/06/25 09:49:02;;;;;;;1.98;0.80;;;;;;;-146.19;100.00;58918.88;5035262;28;20072;-49
2022/06/25 09:52:02;;;;;;;2.50;0.90;;;;;;;-146.19;100.00;58918.88;5023435;28;20503;-52
2022/06/25 09:54:55;;;;;;;1.42;0.73;;;;;;;-146.19;100.00;58918.88;5030859;28;20441;-50
2022/06/25 09:57:48;;;;;;;0.82;0.70;;;;;;;-146.19;100.00;58918.88;5041036;28;20057;-46
2022/06/25 10:00:41;;;;;;;1.42;0.80;;;;;;;-146.19;100.00;58918.88;5042169;28;20056;-48
2022/06/25 10:03:35;;;;;;;2.85;0.90;;;;;;;-146.19;100.00;58918.88;5031076;28;20526;-48
2022/06/25 10:06:34;;;;;;;1.15;0.80;;;;;;;-146.19;100.00;58918.88;5038028;28;20064;-50
2022/06/25 10:09:26;;;;;;;3.22;0.90;;;;;;;-146.19;100.00;58918.88;5029186;28;20057;-48
2022/06/25 10:12:20;;;;;;;0.80;0.70;;;;;;;-146.19;100.00;58918.88;5035146;28;20053;-45
2022/06/25 10:15:12;;;;;;;0.80;0.68;;;;;;;-146.19;100.00;58918.88;5035637;28;20056;-45
2022/06/25 10:18:06;;;;;;;1.80;0.80;;;;;;;-146.19;100.00;58918.88;5024458;28;20500;-46
2022/06/25 10:20:59;;;;;;;3.00;0.80;;;;;;;-146.19;100.00;58918.88;5023905;28;20420;-46
2022/06/25 10:23:54;;;;;;;1.75;0.70;;;;;;;-146.19;100.00;58918.88;5035885;28;20069;-48
2022/06/25 10:26:47;;;;;;;1.30;0.70;;;;;;;-146.19;100.00;58918.88;5033152;28;20061;-50
2022/06/25 10:29:39;;;;;;;2.45;0.85;;;;;;;-146.19;100.00;58918.88;5040717;28;20307;-47
2022/06/25 10:32:34;;;;;;;0.75;0.70;;;;;;;-146.19;100.00;58918.88;5025988;28;20671;-46
2022/06/25 10:35:31;;;;;;;0.85;0.60;;;;;;;-146.19;100.00;58918.88;5031037;28;20044;-51
2022/06/25 10:38:25;;;;;;;2.83;0.80;;;;;;;-146.19;100.00;58918.88;5036577;28;21546;-46
2022/06/25 10:44:29;;;;;;;1.60;0.73;;;;;;;-146.19;100.00;58918.88;5046898;28;21565;-44
2022/06/25 10:47:37;;;;;;;1.58;0.90;;;;;;;-146.19;100.00;58918.88;5048119;28;20496;-51
2022/06/25 10:50:30;;;;;;;1.90;0.80;;;;;;;-146.19;100.00;58918.88;5045584;28;20041;-53
2022/06/25 10:53:27;;;;;;;0.93;0.77;;;;;;;-146.19;100.00;58918.88;5032912;28;20064;-48
2022/06/25 10:56:21;;;;;;;2.55;0.70;;;;;;;-146.19;100.00;58918.88;5034156;28;20077;-49
2022/06/25 10:59:47;;;;;;;2.10;0.70;;;;;;;-146.19;100.00;58918.88;5023416;28;20065;-46
2022/06/25 11:02:42;;;;;;;1.73;0.88;;;;;;;-146.19;100.00;58918.88;5048998;28;20437;-49
2022/06/25 11:05:40;;;;;;;1.50;0.80;;;;;;;-146.19;100.00;58918.88;5049596;28;20068;-52
2022/06/25 11:08:33;;;;;;;0.90;0.70;;;;;;;-146.19;100.00;58918.88;5047511;28;20041;-53
2022/06/25 11:11:28;;;;;;;1.50;0.75;;;;;;;-146.19;100.00;58918.88;5043360;28;20327;-50
2022/06/25 11:14:24;;;;;;;1.80;0.77;;;;;;;-146.19;100.00;58918.88;5030834;28;21531;-48
2022/06/25 11:17:16;;;;;;;1.10;0.70;;;;;;;-146.19;100.00;58918.88;5024852;28;20053;-45
2022/06/25 11:20:10;;;;;;;0.75;0.75;;;;;;;-146.19;100.00;58918.88;5034446;28;20061;-45
2022/06/25 11:23:03;;;;;;;1.67;0.68;;;;;;;-146.19;100.00;58918.88;5028069;28;20053;-48
2022/06/25 11:29:08;;;;;;;1.30;0.70;;;;;;;-146.19;100.00;58918.88;5041855;28;20068;-47
2022/06/25 11:32:00;;;;;;;2.20;0.90;;;;;;;-146.19;100.00;58918.88;5022913;28;20058;-49
2022/06/25 11:34:54;;;;;;;0.70;0.60;;;;;;;-146.19;100.00;58918.88;5035217;28;20077;-48
2022/06/25 11:37:46;;;;;;;2.47;0.82;;;;;;;-146.19;100.00;58918.88;5035125;28;20072;-49
2022/06/25 11:40:38;;;;;;;1.77;1.00;;;;;;;-146.19;100.00;58918.88;5039593;28;20065;-51
2022/06/25 11:43:30;;;;;;;1.20;0.70;;;;;;;-146.19;100.00;58918.88;5021641;28;20049;-53
2022/06/25 11:46:24;;;;;;;1.30;0.77;;;;;;;-146.19;100.00;58918.88;5030496;28;20544;-45
2022/06/25 11:49:19;;;;;;;2.00;0.70;;;;;;;-146.19;100.00;58918.88;5026326;28;20472;-51
2022/06/25 11:52:13;;;;;;;1.45;0.80;;;;;;;-146.19;100.00;58918.88;5041469;28;20077;-46
2022/06/25 11:55:08;;;;;;;1.58;0.70;;;;;;;-146.19;100.00;58918.88;5031815;28;20065;-51
2022/06/25 11:58:01;;;;;;;2.80;0.80;;;;;;;-146.19;100.00;58918.88;5036579;28;20073;-47